createdAt,value
2019-04-29T00:02:10.907Z,9.70
2019-04-29T00:04:38.274Z,9.74
2019-04-29T00:07:06.215Z,9.77
2019-04-29T00:09:33.794Z,9.77
2019-04-29T00:12:01.364Z,9.83
2019-04-29T00:14:29.697Z,9.76
2019-04-29T00:16:59.110Z,9.73
2019-04-29T00:19:46.030Z,9.77
2019-04-29T00:22:14.866Z,9.78
2019-04-29T00:24:42.498Z,9.84
2019-04-29T00:27:10.114Z,9.79
2019-04-29T00:29:38.034Z,9.84
2019-04-29T00:32:05.831Z,9.87
2019-04-29T00:34:33.405Z,9.80
2019-04-29T00:37:05.468Z,9.81
2019-04-29T00:39:32.996Z,9.78
2019-04-29T00:42:05.200Z,9.79
2019-04-29T00:44:32.500Z,9.78
2019-04-29T00:47:00.255Z,9.73
2019-04-29T00:49:27.891Z,9.78
2019-04-29T00:51:55.355Z,9.79
2019-04-29T00:54:25.266Z,9.79
2019-04-29T00:56:52.592Z,9.91
2019-04-29T00:59:19.911Z,9.93
2019-04-29T01:01:47.761Z,9.91
2019-04-29T01:04:15.658Z,9.88
2019-04-29T01:06:42.962Z,9.86
2019-04-29T01:09:13.609Z,9.88
2019-04-29T01:11:41.641Z,9.95
2019-04-29T01:14:09.368Z,10.00
2019-04-29T01:16:37.028Z,10.06
2019-04-29T01:19:04.571Z,10.11
2019-04-29T01:21:32.068Z,10.19
2019-04-29T01:23:59.322Z,10.13
2019-04-29T01:26:30.027Z,9.98
2019-04-29T01:29:05.611Z,10.03
2019-04-29T01:31:33.184Z,10.05
2019-04-29T01:34:02.569Z,10.01
2019-04-29T01:36:33.187Z,9.98
2019-04-29T01:39:01.966Z,10.07
2019-04-29T01:41:41.224Z,10.17
2019-04-29T01:44:10.493Z,10.06
2019-04-29T01:46:37.838Z,10.06
2019-04-29T01:49:05.232Z,10.07
2019-04-29T01:51:32.729Z,10.06
2019-04-29T01:54:00.352Z,10.07
2019-04-29T01:56:28.004Z,10.08
2019-04-29T01:58:55.837Z,10.12
2019-04-29T02:01:23.292Z,10.10
2019-04-29T02:03:51.673Z,10.12
2019-04-29T02:06:19.181Z,10.05
2019-04-29T02:08:47.110Z,10.08
2019-04-29T02:11:14.405Z,10.05
2019-04-29T02:13:41.838Z,10.04
2019-04-29T02:16:09.255Z,10.04
2019-04-29T02:18:36.603Z,10.03
2019-04-29T02:21:05.305Z,9.97
2019-04-29T02:23:46.685Z,10.05
2019-04-29T02:26:14.196Z,10.02
2019-04-29T02:28:41.368Z,9.98
2019-04-29T02:31:27.285Z,9.95
2019-04-29T02:33:54.786Z,10.01
2019-04-29T02:36:22.361Z,9.93
2019-04-29T02:39:08.332Z,10.04
2019-04-29T02:41:54.854Z,10.05
2019-04-29T02:44:22.204Z,10.11
2019-04-29T02:46:49.610Z,10.04
2019-04-29T02:49:17.014Z,10.03
2019-04-29T02:51:49.702Z,10.07
2019-04-29T02:54:17.218Z,10.00
2019-04-29T02:56:52.559Z,10.02
2019-04-29T02:59:34.421Z,10.06
2019-04-29T03:02:04.334Z,10.03
2019-04-29T03:04:38.261Z,10.03
2019-04-29T03:07:05.651Z,9.97
2019-04-29T03:09:34.930Z,10.00
2019-04-29T03:12:02.544Z,10.00
2019-04-29T03:14:30.673Z,10.00
2019-04-29T03:16:58.170Z,9.99
2019-04-29T03:19:30.383Z,10.00
2019-04-29T03:22:02.046Z,10.03
2019-04-29T03:24:30.955Z,9.99
2019-04-29T03:26:58.574Z,10.05
2019-04-29T03:29:25.749Z,10.00
2019-04-29T03:31:54.322Z,9.99
2019-04-29T03:34:22.053Z,9.99
2019-04-29T03:36:49.647Z,10.12
2019-04-29T03:39:17.062Z,10.08
2019-04-29T03:41:44.395Z,10.03
2019-04-29T03:44:11.836Z,10.04
2019-04-29T03:46:39.209Z,10.05
2019-04-29T03:49:06.522Z,10.05
2019-04-29T03:51:34.732Z,10.05
2019-04-29T03:54:02.240Z,10.05
2019-04-29T03:56:30.067Z,10.03
2019-04-29T03:58:57.438Z,10.02
2019-04-29T04:01:32.851Z,10.11
2019-04-29T04:04:05.354Z,9.97
2019-04-29T04:06:32.620Z,10.06
2019-04-29T04:09:05.837Z,10.10
2019-04-29T04:11:31.151Z,10.05
2019-04-29T04:13:58.526Z,10.11
2019-04-29T04:16:44.868Z,10.07
2019-04-29T04:19:12.586Z,10.06
2019-04-29T04:21:40.109Z,10.10
2019-04-29T04:24:07.311Z,10.16
2019-04-29T04:26:34.548Z,10.16
2019-04-29T04:29:01.816Z,10.09
2019-04-29T04:31:29.222Z,10.02
2019-04-29T04:33:56.917Z,10.04
2019-04-29T04:36:24.106Z,10.17
2019-04-29T04:38:51.501Z,10.14
2019-04-29T04:41:18.813Z,10.16
2019-04-29T04:43:46.095Z,10.21
2019-04-29T04:46:13.566Z,10.15
2019-04-29T04:48:40.836Z,10.20
2019-04-29T04:51:08.101Z,10.17
2019-04-29T04:53:35.366Z,10.22
2019-04-29T04:56:03.419Z,10.13
2019-04-29T04:58:32.847Z,10.15
2019-04-29T05:01:00.290Z,10.21
2019-04-29T05:03:27.933Z,10.24
2019-04-29T05:05:55.450Z,10.24
2019-04-29T05:08:24.044Z,10.15
2019-04-29T05:10:51.448Z,10.29
2019-04-29T05:13:27.818Z,10.32
2019-04-29T05:15:48.134Z,10.29
2019-04-29T05:18:15.410Z,10.42
2019-04-29T05:20:43.280Z,10.36
2019-04-29T05:23:10.504Z,10.30
2019-04-29T05:25:37.957Z,10.30
2019-04-29T05:28:05.672Z,10.28
2019-04-29T05:30:32.896Z,10.38
2019-04-29T05:33:00.338Z,10.28
2019-04-29T05:35:30.875Z,10.26
2019-04-29T05:38:01.239Z,10.35
2019-04-29T05:40:42.665Z,10.45
2019-04-29T05:43:11.795Z,10.41
2019-04-29T05:45:46.229Z,10.55
2019-04-29T05:48:16.244Z,10.59
2019-04-29T05:50:47.583Z,10.53
2019-04-29T05:53:17.923Z,10.46
2019-04-29T05:55:45.716Z,10.50
2019-04-29T05:58:13.277Z,10.48
2019-04-29T06:00:43.730Z,10.63
2019-04-29T06:03:11.329Z,10.73
2019-04-29T06:05:38.888Z,10.76
2019-04-29T06:08:06.465Z,10.72
2019-04-29T06:10:33.835Z,10.83
2019-04-29T06:13:01.170Z,10.79
2019-04-29T06:15:29.303Z,10.69
2019-04-29T06:17:57.333Z,10.61
2019-04-29T06:20:26.688Z,10.67
2019-04-29T06:22:53.977Z,10.69
2019-04-29T06:25:22.480Z,10.82
2019-04-29T06:27:50.351Z,10.83
2019-04-29T06:30:18.207Z,10.95
2019-04-29T06:32:45.747Z,10.92
2019-04-29T06:35:14.215Z,11.14
2019-04-29T06:37:42.164Z,10.86
2019-04-29T06:40:09.928Z,10.87
2019-04-29T06:42:37.411Z,11.05
2019-04-29T06:45:07.445Z,11.09
2019-04-29T06:47:35.964Z,11.00
2019-04-29T06:50:07.167Z,10.97
2019-04-29T06:52:34.732Z,11.26
2019-04-29T06:55:02.542Z,11.00
2019-04-29T06:57:30.079Z,11.24
2019-04-29T06:59:57.911Z,11.27
2019-04-29T07:02:25.270Z,11.25
2019-04-29T07:04:52.677Z,11.21
2019-04-29T07:07:20.061Z,11.27
2019-04-29T07:09:47.633Z,11.42
2019-04-29T07:12:15.539Z,11.29
2019-04-29T07:14:43.094Z,11.36
2019-04-29T07:17:10.822Z,11.33
2019-04-29T07:19:38.256Z,11.33
2019-04-29T07:22:07.297Z,11.69
2019-04-29T07:24:34.455Z,11.74
2019-04-29T07:27:02.820Z,11.64
2019-04-29T07:29:33.500Z,11.38
2019-04-29T07:32:04.804Z,11.58
2019-04-29T07:34:33.671Z,11.28
2019-04-29T07:36:59.915Z,11.40
2019-04-29T07:39:31.648Z,11.53
2019-04-29T07:41:56.657Z,11.87
2019-04-29T07:44:29.998Z,11.87
2019-04-29T07:47:01.864Z,11.59
2019-04-29T07:49:26.048Z,11.50
2019-04-29T07:51:53.381Z,11.38
2019-04-29T07:54:21.101Z,11.31
2019-04-29T07:56:48.650Z,11.29
2019-04-29T07:59:16.122Z,11.26
2019-04-29T08:01:43.524Z,11.29
2019-04-29T08:04:11.113Z,11.22
2019-04-29T08:06:42.780Z,11.18
2019-04-29T08:09:09.714Z,11.25
2019-04-29T08:11:37.435Z,11.30
2019-04-29T08:14:04.763Z,11.25
2019-04-29T08:16:32.410Z,11.29
2019-04-29T08:18:59.682Z,11.41
2019-04-29T08:21:27.176Z,11.49
2019-04-29T08:23:54.708Z,11.24
2019-04-29T08:26:22.128Z,11.40
2019-04-29T08:28:53.031Z,11.25
2019-04-29T08:31:21.030Z,11.30
2019-04-29T08:33:48.507Z,11.33
2019-04-29T08:36:16.054Z,11.37
2019-04-29T08:38:43.521Z,11.43
2019-04-29T08:41:10.913Z,11.42
2019-04-29T08:44:14.661Z,11.40
2019-04-29T08:46:27.990Z,11.41
2019-04-29T08:49:01.093Z,11.36
2019-04-29T08:51:26.704Z,11.38
2019-04-29T08:53:54.162Z,11.54
2019-04-29T08:56:21.373Z,11.64
2019-04-29T08:58:49.632Z,11.63
2019-04-29T09:01:17.986Z,11.68
2019-04-29T09:03:45.442Z,11.78
2019-04-29T09:06:12.769Z,11.90
2019-04-29T09:08:54.163Z,11.72
2019-04-29T09:11:12.818Z,11.66
2019-04-29T09:13:39.183Z,11.78
2019-04-29T09:16:07.202Z,11.79
2019-04-29T09:18:34.618Z,11.57
2019-04-29T09:21:01.970Z,11.54
2019-04-29T09:23:31.512Z,11.59
2019-04-29T09:26:02.831Z,11.60
2019-04-29T09:28:30.426Z,11.70
2019-04-29T09:30:57.730Z,11.74
2019-04-29T09:33:25.239Z,11.82
2019-04-29T09:35:52.718Z,11.96
2019-04-29T09:38:20.149Z,11.98
2019-04-29T09:40:49.402Z,12.31
2019-04-29T09:43:33.662Z,12.15
2019-04-29T09:46:06.703Z,12.06
2019-04-29T09:48:34.134Z,11.97
2019-04-29T09:51:16.382Z,12.08
2019-04-29T09:53:32.877Z,11.86
2019-04-29T09:56:00.288Z,11.88
2019-04-29T09:58:27.964Z,11.84
2019-04-29T10:01:01.339Z,11.88
2019-04-29T10:03:47.183Z,11.71
2019-04-29T10:06:16.522Z,11.69
2019-04-29T10:08:44.066Z,11.82
2019-04-29T10:11:12.351Z,11.64
2019-04-29T10:13:39.888Z,11.75
2019-04-29T10:16:09.692Z,11.71
2019-04-29T10:18:44.984Z,11.57
2019-04-29T10:21:19.638Z,11.75
2019-04-29T10:23:43.988Z,11.64
2019-04-29T10:26:11.353Z,11.75
2019-04-29T10:28:40.463Z,11.58
2019-04-29T10:31:08.299Z,11.59
2019-04-29T10:33:35.626Z,11.60
2019-04-29T10:36:07.188Z,11.65
2019-04-29T10:38:34.416Z,11.55
2019-04-29T10:41:10.171Z,11.57
2019-04-29T10:43:56.339Z,11.54
2019-04-29T10:46:30.002Z,11.63
2019-04-29T10:49:08.522Z,11.60
2019-04-29T10:51:36.388Z,11.38
2019-04-29T10:54:04.696Z,11.36
2019-04-29T10:56:35.291Z,11.41
2019-04-29T10:59:04.640Z,11.39
2019-04-29T11:02:19.837Z,11.47
2019-04-29T11:04:54.301Z,11.47
2019-04-29T11:07:29.566Z,11.61
2019-04-29T11:09:59.071Z,11.73
2019-04-29T11:12:26.493Z,11.62
2019-04-29T11:14:53.903Z,11.56
2019-04-29T11:17:23.232Z,11.76
2019-04-29T11:19:52.043Z,11.55
2019-04-29T11:22:21.527Z,11.70
2019-04-29T11:25:07.677Z,11.68
2019-04-29T11:27:56.224Z,11.69
2019-04-29T11:30:29.650Z,11.84
2019-04-29T11:33:00.126Z,11.78
2019-04-29T11:35:29.806Z,12.02
2019-04-29T11:37:59.904Z,11.87
2019-04-29T11:40:42.531Z,11.78
2019-04-29T11:42:57.861Z,11.87
2019-04-29T11:45:25.624Z,11.87
2019-04-29T11:47:53.243Z,12.11
2019-04-29T11:50:27.068Z,12.16
2019-04-29T11:52:55.669Z,12.25
2019-04-29T11:55:23.211Z,12.07
2019-04-29T11:57:58.350Z,11.92
2019-04-29T12:00:28.971Z,11.86
2019-04-29T12:02:58.440Z,11.68
2019-04-29T12:05:30.963Z,11.72
2019-04-29T12:07:58.350Z,11.78
2019-04-29T12:10:25.780Z,11.56
2019-04-29T12:12:53.237Z,11.71
2019-04-29T12:15:28.787Z,11.69
2019-04-29T12:18:15.482Z,11.60
2019-04-29T12:20:51.707Z,11.63
2019-04-29T12:23:20.171Z,11.62
2019-04-29T12:25:48.611Z,11.76
2019-04-29T12:28:19.418Z,11.67
2019-04-29T12:30:47.296Z,11.91
2019-04-29T12:33:16.944Z,11.76
2019-04-29T12:36:05.241Z,11.87
2019-04-29T12:38:39.662Z,11.66
2019-04-29T12:41:20.618Z,11.54
2019-04-29T12:43:59.121Z,11.59
2019-04-29T12:46:26.023Z,11.78
2019-04-29T12:48:53.359Z,11.77
2019-04-29T12:51:20.881Z,11.80
2019-04-29T12:53:48.215Z,11.77
2019-04-29T12:56:17.731Z,11.76
2019-04-29T12:58:50.222Z,11.87
2019-04-29T13:01:20.498Z,11.76
2019-04-29T13:03:59.869Z,11.93
2019-04-29T13:06:39.192Z,11.95
2019-04-29T13:09:17.237Z,12.03
2019-04-29T13:11:40.924Z,11.88
2019-04-29T13:14:04.599Z,11.74
2019-04-29T13:16:32.074Z,11.78
2019-04-29T13:19:20.323Z,11.67
2019-04-29T13:21:47.400Z,11.59
2019-04-29T13:24:23.689Z,11.61
2019-04-29T13:26:45.679Z,11.59
2019-04-29T13:29:26.261Z,11.54
2019-04-29T13:31:42.504Z,11.68
2019-04-29T13:34:23.636Z,11.68
2019-04-29T13:36:41.247Z,11.60
2019-04-29T13:39:10.368Z,11.59
2019-04-29T13:41:57.358Z,11.66
2019-04-29T13:44:07.940Z,11.56
2019-04-29T13:46:40.474Z,11.67
2019-04-29T13:49:13.542Z,11.52
2019-04-29T13:51:41.411Z,11.60
2019-04-29T13:54:09.068Z,11.55
2019-04-29T13:56:54.657Z,11.59
2019-04-29T13:59:10.711Z,11.50
2019-04-29T14:02:01.458Z,11.60
2019-04-29T14:04:26.204Z,11.45
2019-04-29T14:06:57.207Z,11.42
2019-04-29T14:09:23.330Z,11.54
2019-04-29T14:12:01.851Z,11.67
2019-04-29T14:14:22.650Z,11.54
2019-04-29T14:16:49.586Z,11.50
2019-04-29T14:19:20.583Z,11.60
2019-04-29T14:21:46.212Z,11.58
2019-04-29T14:24:13.692Z,11.58
2019-04-29T14:26:42.114Z,11.63
2019-04-29T14:29:10.577Z,11.81
2019-04-29T14:31:38.515Z,11.78
2019-04-29T14:34:08.093Z,11.79
2019-04-29T14:36:35.595Z,11.82
2019-04-29T14:39:06.803Z,11.93
2019-04-29T14:41:36.321Z,11.76
2019-04-29T14:44:07.360Z,11.85
2019-04-29T14:46:38.432Z,11.93
2019-04-29T14:49:24.503Z,11.66
2019-04-29T14:51:52.077Z,11.81
2019-04-29T14:54:19.894Z,11.81
2019-04-29T14:56:47.092Z,12.08
2019-04-29T14:59:15.117Z,11.96
2019-04-29T15:01:44.781Z,12.16
2019-04-29T15:04:18.260Z,12.07
2019-04-29T15:06:45.014Z,11.87
2019-04-29T15:09:17.484Z,11.75
2019-04-29T15:11:54.212Z,11.70
2019-04-29T15:14:42.386Z,11.73
2019-04-29T15:17:17.842Z,11.82
2019-04-29T15:19:48.936Z,11.91
2019-04-29T15:22:18.594Z,11.87
2019-04-29T15:24:46.128Z,11.87
2019-04-29T15:27:13.681Z,11.85
2019-04-29T15:29:40.990Z,11.76
2019-04-29T15:32:11.364Z,11.78
2019-04-29T15:34:43.702Z,11.82
2019-04-29T15:37:08.007Z,11.68
2019-04-29T15:39:35.456Z,11.83
2019-04-29T15:42:06.946Z,11.82
2019-04-29T15:44:34.218Z,11.75
2019-04-29T15:47:01.769Z,11.62
2019-04-29T15:49:29.256Z,11.61
2019-04-29T15:51:56.701Z,11.55
2019-04-29T15:54:26.005Z,11.57
2019-04-29T15:56:53.452Z,11.58
2019-04-29T15:59:21.844Z,11.78
2019-04-29T16:01:49.246Z,11.70
2019-04-29T16:04:37.048Z,11.59
2019-04-29T16:07:19.513Z,11.66
2019-04-29T16:09:51.747Z,11.77
2019-04-29T16:12:19.708Z,11.71
2019-04-29T16:14:49.165Z,11.82
2019-04-29T16:17:20.559Z,11.65
2019-04-29T16:19:47.129Z,11.65
2019-04-29T16:22:20.177Z,11.68
2019-04-29T16:24:44.364Z,11.58
2019-04-29T16:27:11.857Z,11.58
2019-04-29T16:29:39.318Z,11.58
2019-04-29T16:32:08.784Z,11.57
2019-04-29T16:34:37.437Z,11.54
2019-04-29T16:37:06.009Z,11.54
2019-04-29T16:39:35.072Z,11.52
2019-04-29T16:42:05.408Z,11.62
2019-04-29T16:44:36.098Z,11.68
2019-04-29T16:47:07.446Z,11.62
2019-04-29T16:49:34.455Z,11.69
2019-04-29T16:52:02.124Z,11.75
2019-04-29T16:54:30.494Z,11.84
2019-04-29T16:56:57.734Z,11.79
2019-04-29T16:59:25.433Z,11.73
2019-04-29T17:01:53.285Z,11.76
2019-04-29T17:04:20.877Z,11.66
2019-04-29T17:07:11.100Z,11.58
2019-04-29T17:09:23.281Z,11.70
2019-04-29T17:11:50.388Z,11.66
2019-04-29T17:14:18.927Z,11.67
2019-04-29T17:16:46.325Z,11.66
2019-04-29T17:19:13.869Z,11.57
2019-04-29T17:21:41.215Z,11.57
2019-04-29T17:24:08.660Z,11.61
2019-04-29T17:26:38.392Z,11.60
2019-04-29T17:29:38.650Z,11.63
2019-04-29T17:32:06.069Z,11.58
2019-04-29T17:34:58.044Z,11.55
2019-04-29T17:37:06.002Z,11.60
2019-04-29T17:39:33.739Z,11.55
2019-04-29T17:42:01.203Z,11.46
2019-04-29T17:44:31.009Z,11.48
2019-04-29T17:47:03.042Z,11.50
2019-04-29T17:49:33.270Z,11.46
2019-04-29T17:52:02.787Z,11.45
2019-04-29T17:54:37.924Z,11.44
2019-04-29T17:57:25.623Z,11.41
2019-04-29T18:00:00.502Z,11.37
2019-04-29T18:02:37.185Z,11.38
2019-04-29T18:05:16.734Z,11.34
2019-04-29T18:07:48.330Z,11.34
2019-04-29T18:10:23.934Z,11.32
2019-04-29T18:12:46.781Z,11.32
2019-04-29T18:15:20.042Z,11.29
2019-04-29T18:17:45.718Z,11.28
2019-04-29T18:20:29.755Z,11.29
2019-04-29T18:23:01.300Z,11.29
2019-04-29T18:25:36.529Z,11.30
2019-04-29T18:28:04.802Z,11.36
2019-04-29T18:30:37.971Z,11.33
2019-04-29T18:33:01.640Z,11.36
2019-04-29T18:35:29.131Z,11.34
2019-04-29T18:37:56.702Z,11.36
2019-04-29T18:40:25.850Z,11.44
2019-04-29T18:42:55.265Z,11.41
2019-04-29T18:45:25.393Z,11.39
2019-04-29T18:47:53.488Z,11.49
2019-04-29T18:50:21.037Z,11.45
2019-04-29T18:52:48.519Z,11.48
2019-04-29T18:55:15.834Z,11.43
2019-04-29T18:57:43.179Z,11.46
2019-04-29T19:00:11.926Z,11.43
2019-04-29T19:02:46.074Z,11.54
2019-04-29T19:05:11.677Z,11.51
2019-04-29T19:07:39.802Z,11.56
2019-04-29T19:10:14.168Z,11.50
2019-04-29T19:12:39.349Z,11.49
2019-04-29T19:15:11.537Z,11.41
2019-04-29T19:17:39.982Z,11.48
2019-04-29T19:20:08.613Z,11.44
2019-04-29T19:22:39.959Z,11.39
2019-04-29T19:25:08.726Z,11.45
2019-04-29T19:27:39.788Z,11.49
2019-04-29T19:30:07.963Z,11.59
2019-04-29T19:32:37.339Z,11.60
2019-04-29T19:35:06.168Z,11.63
2019-04-29T19:37:37.553Z,11.67
2019-04-29T19:40:08.050Z,11.60
2019-04-29T19:42:35.901Z,11.49
2019-04-29T19:45:06.334Z,11.55
2019-04-29T19:47:36.161Z,11.50
2019-04-29T19:50:10.301Z,11.52
2019-04-29T19:52:37.167Z,11.55
2019-04-29T19:55:06.521Z,11.46
2019-04-29T19:57:37.883Z,11.42
2019-04-29T20:00:07.042Z,11.46
2019-04-29T20:02:36.242Z,11.49
2019-04-29T20:05:16.075Z,11.40
2019-04-29T20:07:44.582Z,11.45
2019-04-29T20:10:13.884Z,11.50
2019-04-29T20:12:45.953Z,11.42
2019-04-29T20:15:12.164Z,11.48
2019-04-29T20:17:58.931Z,11.41
2019-04-29T20:20:38.528Z,11.43
2019-04-29T20:23:05.788Z,11.58
2019-04-29T20:25:38.039Z,11.50
2019-04-29T20:28:12.752Z,11.45
2019-04-29T20:30:36.404Z,11.57
2019-04-29T20:33:11.106Z,11.55
2019-04-29T20:35:35.554Z,11.47
2019-04-29T20:38:02.995Z,11.45
2019-04-29T20:40:36.268Z,11.44
2019-04-29T20:43:01.832Z,11.49
2019-04-29T20:45:29.738Z,11.45
2019-04-29T20:47:57.407Z,11.49
2019-04-29T20:50:25.479Z,11.44
2019-04-29T20:53:02.365Z,11.37
2019-04-29T20:55:31.970Z,11.40
2019-04-29T20:58:00.468Z,11.37
2019-04-29T21:00:30.336Z,11.31
2019-04-29T21:02:58.062Z,11.39
2019-04-29T21:05:27.645Z,11.32
2019-04-29T21:08:02.961Z,11.29
2019-04-29T21:10:26.659Z,11.25
2019-04-29T21:13:01.521Z,11.33
2019-04-29T21:15:52.116Z,11.29
2019-04-29T21:18:16.226Z,11.29
2019-04-29T21:20:45.133Z,11.29
2019-04-29T21:23:13.199Z,11.29
2019-04-29T21:25:40.398Z,11.29
2019-04-29T21:28:07.855Z,11.32
2019-04-29T21:30:42.529Z,11.38
2019-04-29T21:33:08.244Z,11.30
2019-04-29T21:35:39.805Z,11.29
2019-04-29T21:38:22.168Z,11.28
2019-04-29T21:40:52.539Z,11.26
2019-04-29T21:43:22.024Z,11.36
2019-04-29T21:45:49.491Z,11.31
2019-04-29T21:48:18.655Z,11.33
2019-04-29T21:50:46.230Z,11.34
2019-04-29T21:53:15.061Z,11.42
2019-04-29T21:55:42.789Z,11.39
2019-04-29T21:58:10.240Z,11.39
2019-04-29T22:00:38.132Z,11.41
2019-04-29T22:03:05.699Z,11.33
2019-04-29T22:05:35.023Z,11.36
2019-04-29T22:08:04.182Z,11.34
2019-04-29T22:10:34.422Z,11.35
2019-04-29T22:13:02.392Z,11.35
2019-04-29T22:15:37.331Z,11.31
2019-04-29T22:18:01.685Z,11.33
2019-04-29T22:20:30.075Z,11.32
2019-04-29T22:22:58.095Z,11.34
2019-04-29T22:25:25.854Z,11.35
2019-04-29T22:27:55.416Z,11.30
2019-04-29T22:30:23.463Z,11.32
2019-04-29T22:32:58.071Z,11.31
2019-04-29T22:35:21.660Z,11.33
2019-04-29T22:37:49.241Z,11.33
2019-04-29T22:40:17.416Z,11.33
2019-04-29T22:42:48.763Z,11.31
2019-04-29T22:45:16.673Z,11.31
2019-04-29T22:47:43.884Z,11.34
2019-04-29T22:50:11.683Z,11.34
2019-04-29T22:52:39.382Z,11.33
2019-04-29T22:55:07.745Z,11.35
2019-04-29T22:57:35.104Z,11.35
2019-04-29T23:00:06.257Z,11.29
2019-04-29T23:02:33.599Z,11.29
2019-04-29T23:05:01.115Z,11.29
2019-04-29T23:07:30.165Z,11.28
2019-04-29T23:09:58.143Z,11.26
2019-04-29T23:12:25.487Z,11.24
2019-04-29T23:14:53.206Z,11.27
2019-04-29T23:17:20.451Z,11.24
2019-04-29T23:19:53.047Z,11.21
2019-04-29T23:22:40.811Z,11.17
2019-04-29T23:25:10.242Z,11.21
2019-04-29T23:27:37.803Z,11.19
2019-04-29T23:30:07.916Z,11.16
2019-04-29T23:32:39.471Z,11.11
2019-04-29T23:35:09.761Z,11.15
2019-04-29T23:37:37.163Z,11.19
2019-04-29T23:40:05.850Z,11.20
2019-04-29T23:42:33.453Z,11.16
2019-04-29T23:45:01.062Z,11.20
2019-04-29T23:47:29.004Z,11.14
2019-04-29T23:49:56.570Z,11.14
2019-04-29T23:52:23.989Z,11.15
2019-04-29T23:54:51.636Z,11.14
2019-04-29T23:57:23.693Z,11.19
2019-04-29T23:59:59.313Z,11.18
